sensor_id;sensor_type;location;lat;lon;timestamp;P1;durP1;ratioP1;P2;durP2;ratioP2
13048;SDS011;6591;51.446;5.404;2023-07-31T00:01:59;11.38;;;5.60;;
13048;SDS011;6591;51.446;5.404;2023-07-31T00:04:26;14.80;;;6.88;;
13048;SDS011;6591;51.446;5.404;2023-07-31T00:06:54;13.50;;;5.60;;
13048;SDS011;6591;51.446;5.404;2023-07-31T00:09:21;8.63;;;5.15;;
13048;SDS011;6591;51.446;5.404;2023-07-31T00:11:48;11.15;;;5.72;;
13048;SDS011;6591;51.446;5.404;2023-07-31T00:14:15;9.68;;;5.05;;
13048;SDS011;6591;51.446;5.404;2023-07-31T00:16:42;9.07;;;4.65;;
13048;SDS011;6591;51.446;5.404;2023-07-31T00:19:09;9.68;;;5.20;;
13048;SDS011;6591;51.446;5.404;2023-07-31T00:21:36;10.45;;;5.10;;
13048;SDS011;6591;51.446;5.404;2023-07-31T00:24:03;10.93;;;4.95;;
13048;SDS011;6591;51.446;5.404;2023-07-31T00:26:31;8.48;;;4.45;;
13048;SDS011;6591;51.446;5.404;2023-07-31T00:28:58;8.35;;;4.35;;
13048;SDS011;6591;51.446;5.404;2023-07-31T00:31:25;8.18;;;4.55;;
13048;SDS011;6591;51.446;5.404;2023-07-31T00:33:52;11.13;;;4.85;;
13048;SDS011;6591;51.446;5.404;2023-07-31T00:36:19;11.00;;;5.03;;
13048;SDS011;6591;51.446;5.404;2023-07-31T00:38:47;9.15;;;4.18;;
13048;SDS011;6591;51.446;5.404;2023-07-31T00:41:15;10.70;;;4.18;;
13048;SDS011;6591;51.446;5.404;2023-07-31T00:43:42;8.45;;;4.63;;
13048;SDS011;6591;51.446;5.404;2023-07-31T00:46:09;8.60;;;4.18;;
13048;SDS011;6591;51.446;5.404;2023-07-31T00:48:37;10.25;;;4.78;;
13048;SDS011;6591;51.446;5.404;2023-07-31T00:51:06;10.93;;;5.03;;
13048;SDS011;6591;51.446;5.404;2023-07-31T00:53:35;9.82;;;4.75;;
13048;SDS011;6591;51.446;5.404;2023-07-31T00:56:03;9.05;;;4.38;;
13048;SDS011;6591;51.446;5.404;2023-07-31T00:58:31;7.07;;;4.38;;
13048;SDS011;6591;51.446;5.404;2023-07-31T01:00:58;7.65;;;3.97;;
13048;SDS011;6591;51.446;5.404;2023-07-31T01:03:26;8.82;;;4.43;;
13048;SDS011;6591;51.446;5.404;2023-07-31T01:11:46;9.68;;;4.63;;
13048;SDS011;6591;51.446;5.404;2023-07-31T01:14:22;10.15;;;4.32;;
13048;SDS011;6591;51.446;5.404;2023-07-31T01:16:49;13.95;;;4.93;;
13048;SDS011;6591;51.446;5.404;2023-07-31T01:19:17;13.32;;;5.35;;
13048;SDS011;6591;51.446;5.404;2023-07-31T01:21:57;9.68;;;4.63;;
13048;SDS011;6591;51.446;5.404;2023-07-31T01:28:05;7.20;;;3.67;;
13048;SDS011;6591;51.446;5.404;2023-07-31T01:30:43;7.43;;;3.83;;
13048;SDS011;6591;51.446;5.404;2023-07-31T01:33:17;9.70;;;4.65;;
13048;SDS011;6591;51.446;5.404;2023-07-31T01:35:45;12.73;;;3.90;;
13048;SDS011;6591;51.446;5.404;2023-07-31T01:38:15;9.13;;;4.63;;
13048;SDS011;6591;51.446;5.404;2023-07-31T01:40:50;8.80;;;4.35;;
13048;SDS011;6591;51.446;5.404;2023-07-31T01:43:19;8.93;;;4.28;;
13048;SDS011;6591;51.446;5.404;2023-07-31T01:45:47;11.60;;;5.43;;
13048;SDS011;6591;51.446;5.404;2023-07-31T01:48:16;9.18;;;4.38;;
13048;SDS011;6591;51.446;5.404;2023-07-31T01:50:43;8.32;;;4.70;;
13048;SDS011;6591;51.446;5.404;2023-07-31T01:53:10;8.43;;;4.40;;
13048;SDS011;6591;51.446;5.404;2023-07-31T01:55:38;9.38;;;4.57;;
13048;SDS011;6591;51.446;5.404;2023-07-31T01:58:07;10.93;;;4.80;;
13048;SDS011;6591;51.446;5.404;2023-07-31T02:00:34;10.95;;;4.72;;
13048;SDS011;6591;51.446;5.404;2023-07-31T02:03:01;8.43;;;4.38;;
13048;SDS011;6591;51.446;5.404;2023-07-31T02:05:28;9.52;;;4.93;;
13048;SDS011;6591;51.446;5.404;2023-07-31T02:07:55;10.32;;;4.88;;
13048;SDS011;6591;51.446;5.404;2023-07-31T02:10:26;8.05;;;4.88;;
13048;SDS011;6591;51.446;5.404;2023-07-31T02:12:53;8.60;;;4.63;;
13048;SDS011;6591;51.446;5.404;2023-07-31T02:15:20;10.65;;;5.47;;
13048;SDS011;6591;51.446;5.404;2023-07-31T02:17:47;10.90;;;4.80;;
13048;SDS011;6591;51.446;5.404;2023-07-31T02:20:15;9.73;;;4.50;;
13048;SDS011;6591;51.446;5.404;2023-07-31T02:22:42;9.20;;;4.75;;
13048;SDS011;6591;51.446;5.404;2023-07-31T02:25:09;9.77;;;4.88;;
13048;SDS011;6591;51.446;5.404;2023-07-31T02:27:36;9.40;;;4.53;;
13048;SDS011;6591;51.446;5.404;2023-07-31T02:30:03;7.22;;;4.60;;
13048;SDS011;6591;51.446;5.404;2023-07-31T02:32:30;8.63;;;4.70;;
13048;SDS011;6591;51.446;5.404;2023-07-31T02:34:57;9.55;;;4.28;;
13048;SDS011;6591;51.446;5.404;2023-07-31T02:37:25;11.73;;;4.68;;
13048;SDS011;6591;51.446;5.404;2023-07-31T02:39:52;12.48;;;4.68;;
13048;SDS011;6591;51.446;5.404;2023-07-31T02:42:19;9.35;;;5.25;;
13048;SDS011;6591;51.446;5.404;2023-07-31T02:44:46;8.38;;;4.45;;
13048;SDS011;6591;51.446;5.404;2023-07-31T02:47:13;11.45;;;5.15;;
13048;SDS011;6591;51.446;5.404;2023-07-31T02:49:40;11.70;;;4.57;;
13048;SDS011;6591;51.446;5.404;2023-07-31T02:52:08;9.18;;;4.45;;
13048;SDS011;6591;51.446;5.404;2023-07-31T02:54:35;10.95;;;4.75;;
13048;SDS011;6591;51.446;5.404;2023-07-31T02:57:02;10.15;;;4.95;;
13048;SDS011;6591;51.446;5.404;2023-07-31T02:59:29;10.88;;;5.18;;
13048;SDS011;6591;51.446;5.404;2023-07-31T03:01:56;10.35;;;4.78;;
13048;SDS011;6591;51.446;5.404;2023-07-31T03:04:25;8.77;;;4.45;;
13048;SDS011;6591;51.446;5.404;2023-07-31T03:06:52;9.23;;;4.82;;
13048;SDS011;6591;51.446;5.404;2023-07-31T03:09:18;9.20;;;4.45;;
13048;SDS011;6591;51.446;5.404;2023-07-31T03:11:45;11.07;;;4.70;;
13048;SDS011;6591;51.446;5.404;2023-07-31T03:14:12;8.77;;;4.47;;
13048;SDS011;6591;51.446;5.404;2023-07-31T03:16:43;8.70;;;4.43;;
13048;SDS011;6591;51.446;5.404;2023-07-31T03:19:10;14.88;;;5.00;;
13048;SDS011;6591;51.446;5.404;2023-07-31T03:21:37;7.90;;;4.25;;
13048;SDS011;6591;51.446;5.404;2023-07-31T03:24:05;8.07;;;4.20;;
13048;SDS011;6591;51.446;5.404;2023-07-31T03:26:32;8.32;;;4.10;;
13048;SDS011;6591;51.446;5.404;2023-07-31T03:28:59;9.27;;;4.85;;
13048;SDS011;6591;51.446;5.404;2023-07-31T03:31:26;13.02;;;4.68;;
13048;SDS011;6591;51.446;5.404;2023-07-31T03:33:53;10.13;;;4.13;;
13048;SDS011;6591;51.446;5.404;2023-07-31T03:36:20;10.27;;;4.60;;
13048;SDS011;6591;51.446;5.404;2023-07-31T03:38:47;9.88;;;4.22;;
13048;SDS011;6591;51.446;5.404;2023-07-31T03:41:15;11.65;;;4.78;;
13048;SDS011;6591;51.446;5.404;2023-07-31T03:43:45;8.27;;;4.45;;
13048;SDS011;6591;51.446;5.404;2023-07-31T03:46:16;8.75;;;3.75;;
13048;SDS011;6591;51.446;5.404;2023-07-31T03:48:43;7.10;;;3.90;;
13048;SDS011;6591;51.446;5.404;2023-07-31T03:51:10;7.18;;;3.63;;
13048;SDS011;6591;51.446;5.404;2023-07-31T03:53:37;9.85;;;4.28;;
13048;SDS011;6591;51.446;5.404;2023-07-31T03:56:04;5.75;;;3.70;;
13048;SDS011;6591;51.446;5.404;2023-07-31T03:58:31;8.18;;;3.88;;
13048;SDS011;6591;51.446;5.404;2023-07-31T04:00:58;9.82;;;4.47;;
13048;SDS011;6591;51.446;5.404;2023-07-31T04:03:25;10.55;;;4.43;;
13048;SDS011;6591;51.446;5.404;2023-07-31T04:05:54;7.00;;;3.75;;
13048;SDS011;6591;51.446;5.404;2023-07-31T04:08:24;10.20;;;4.30;;
13048;SDS011;6591;51.446;5.404;2023-07-31T04:10:52;8.20;;;4.05;;
13048;SDS011;6591;51.446;5.404;2023-07-31T04:13:19;8.77;;;4.10;;
13048;SDS011;6591;51.446;5.404;2023-07-31T04:15:49;8.07;;;4.75;;
13048;SDS011;6591;51.446;5.404;2023-07-31T04:18:17;11.30;;;4.50;;
13048;SDS011;6591;51.446;5.404;2023-07-31T04:20:44;8.82;;;4.10;;
13048;SDS011;6591;51.446;5.404;2023-07-31T04:23:11;8.27;;;4.45;;
13048;SDS011;6591;51.446;5.404;2023-07-31T04:25:38;6.15;;;3.90;;
13048;SDS011;6591;51.446;5.404;2023-07-31T04:28:05;11.13;;;4.40;;
13048;SDS011;6591;51.446;5.404;2023-07-31T04:30:33;9.85;;;4.18;;
13048;SDS011;6591;51.446;5.404;2023-07-31T04:33:01;9.60;;;4.70;;
13048;SDS011;6591;51.446;5.404;2023-07-31T04:35:28;6.75;;;4.43;;
13048;SDS011;6591;51.446;5.404;2023-07-31T04:37:55;8.57;;;4.43;;
13048;SDS011;6591;51.446;5.404;2023-07-31T04:40:22;8.52;;;4.32;;
13048;SDS011;6591;51.446;5.404;2023-07-31T04:42:49;7.65;;;3.95;;
13048;SDS011;6591;51.446;5.404;2023-07-31T04:45:17;6.80;;;4.00;;
13048;SDS011;6591;51.446;5.404;2023-07-31T04:47:44;7.05;;;4.20;;
13048;SDS011;6591;51.446;5.404;2023-07-31T04:50:11;8.63;;;4.30;;
13048;SDS011;6591;51.446;5.404;2023-07-31T04:52:38;6.95;;;4.57;;
13048;SDS011;6591;51.446;5.404;2023-07-31T04:55:05;7.72;;;3.83;;
13048;SDS011;6591;51.446;5.404;2023-07-31T04:57:32;10.32;;;4.80;;
13048;SDS011;6591;51.446;5.404;2023-07-31T04:59:59;6.05;;;3.90;;
13048;SDS011;6591;51.446;5.404;2023-07-31T05:02:27;7.38;;;4.15;;
13048;SDS011;6591;51.446;5.404;2023-07-31T05:04:54;6.60;;;4.03;;
13048;SDS011;6591;51.446;5.404;2023-07-31T05:07:21;5.63;;;3.88;;
13048;SDS011;6591;51.446;5.404;2023-07-31T05:09:48;7.18;;;3.78;;
13048;SDS011;6591;51.446;5.404;2023-07-31T05:12:15;5.90;;;3.55;;
13048;SDS011;6591;51.446;5.404;2023-07-31T05:14:42;5.28;;;3.63;;
13048;SDS011;6591;51.446;5.404;2023-07-31T05:17:09;8.40;;;4.15;;
13048;SDS011;6591;51.446;5.404;2023-07-31T05:19:36;6.38;;;3.70;;
13048;SDS011;6591;51.446;5.404;2023-07-31T05:22:03;6.32;;;3.80;;
13048;SDS011;6591;51.446;5.404;2023-07-31T05:24:31;5.47;;;3.65;;
13048;SDS011;6591;51.446;5.404;2023-07-31T05:26:58;4.82;;;3.45;;
13048;SDS011;6591;51.446;5.404;2023-07-31T05:29:25;4.90;;;3.72;;
13048;SDS011;6591;51.446;5.404;2023-07-31T05:31:52;5.38;;;3.47;;
13048;SDS011;6591;51.446;5.404;2023-07-31T05:34:19;5.80;;;3.53;;
13048;SDS011;6591;51.446;5.404;2023-07-31T05:36:46;5.75;;;3.40;;
13048;SDS011;6591;51.446;5.404;2023-07-31T05:39:13;5.45;;;3.85;;
13048;SDS011;6591;51.446;5.404;2023-07-31T05:41:40;5.10;;;3.05;;
13048;SDS011;6591;51.446;5.404;2023-07-31T05:44:07;4.82;;;3.78;;
13048;SDS011;6591;51.446;5.404;2023-07-31T05:46:34;5.57;;;3.60;;
13048;SDS011;6591;51.446;5.404;2023-07-31T05:49:01;4.85;;;3.40;;
13048;SDS011;6591;51.446;5.404;2023-07-31T05:51:29;3.92;;;3.30;;
13048;SDS011;6591;51.446;5.404;2023-07-31T05:53:56;3.90;;;3.20;;
13048;SDS011;6591;51.446;5.404;2023-07-31T05:56:23;4.10;;;2.90;;
13048;SDS011;6591;51.446;5.404;2023-07-31T05:58:50;4.28;;;2.83;;
13048;SDS011;6591;51.446;5.404;2023-07-31T06:01:17;3.95;;;3.08;;
13048;SDS011;6591;51.446;5.404;2023-07-31T06:03:44;3.50;;;2.80;;
13048;SDS011;6591;51.446;5.404;2023-07-31T06:06:11;3.72;;;2.35;;
13048;SDS011;6591;51.446;5.404;2023-07-31T06:08:39;3.08;;;2.35;;
13048;SDS011;6591;51.446;5.404;2023-07-31T06:11:07;4.13;;;2.95;;
13048;SDS011;6591;51.446;5.404;2023-07-31T06:13:35;3.05;;;2.60;;
13048;SDS011;6591;51.446;5.404;2023-07-31T06:16:02;2.90;;;2.60;;
13048;SDS011;6591;51.446;5.404;2023-07-31T06:18:32;4.00;;;2.65;;
13048;SDS011;6591;51.446;5.404;2023-07-31T06:21:00;3.30;;;2.63;;
13048;SDS011;6591;51.446;5.404;2023-07-31T06:23:27;3.10;;;2.78;;
13048;SDS011;6591;51.446;5.404;2023-07-31T06:25:54;3.72;;;2.80;;
13048;SDS011;6591;51.446;5.404;2023-07-31T06:28:26;2.90;;;2.60;;
13048;SDS011;6591;51.446;5.404;2023-07-31T06:30:58;4.53;;;2.75;;
13048;SDS011;6591;51.446;5.404;2023-07-31T06:33:25;3.65;;;2.80;;
13048;SDS011;6591;51.446;5.404;2023-07-31T06:35:53;3.22;;;2.92;;
13048;SDS011;6591;51.446;5.404;2023-07-31T06:38:22;3.90;;;3.00;;
13048;SDS011;6591;51.446;5.404;2023-07-31T06:40:52;3.17;;;2.53;;
13048;SDS011;6591;51.446;5.404;2023-07-31T06:43:19;3.40;;;2.80;;
13048;SDS011;6591;51.446;5.404;2023-07-31T06:45:48;2.95;;;2.63;;
13048;SDS011;6591;51.446;5.404;2023-07-31T06:48:17;3.67;;;2.83;;
13048;SDS011;6591;51.446;5.404;2023-07-31T06:50:44;3.33;;;2.55;;
13048;SDS011;6591;51.446;5.404;2023-07-31T06:53:12;4.43;;;3.10;;
13048;SDS011;6591;51.446;5.404;2023-07-31T06:55:39;3.60;;;2.63;;
13048;SDS011;6591;51.446;5.404;2023-07-31T06:58:06;3.35;;;2.75;;
13048;SDS011;6591;51.446;5.404;2023-07-31T07:00:33;3.55;;;2.80;;
13048;SDS011;6591;51.446;5.404;2023-07-31T07:03:00;2.60;;;2.40;;
13048;SDS011;6591;51.446;5.404;2023-07-31T07:05:28;3.22;;;2.75;;
13048;SDS011;6591;51.446;5.404;2023-07-31T07:07:55;4.63;;;2.90;;
13048;SDS011;6591;51.446;5.404;2023-07-31T07:10:22;2.90;;;2.60;;
13048;SDS011;6591;51.446;5.404;2023-07-31T07:12:49;3.20;;;2.53;;
13048;SDS011;6591;51.446;5.404;2023-07-31T07:15:16;3.55;;;2.63;;
13048;SDS011;6591;51.446;5.404;2023-07-31T07:17:44;2.97;;;2.63;;
13048;SDS011;6591;51.446;5.404;2023-07-31T07:20:11;2.58;;;2.22;;
13048;SDS011;6591;51.446;5.404;2023-07-31T07:22:38;2.58;;;2.38;;
13048;SDS011;6591;51.446;5.404;2023-07-31T07:25:05;2.58;;;2.20;;
13048;SDS011;6591;51.446;5.404;2023-07-31T07:27:33;3.00;;;2.58;;
13048;SDS011;6591;51.446;5.404;2023-07-31T07:30:01;2.83;;;2.30;;
13048;SDS011;6591;51.446;5.404;2023-07-31T07:32:28;3.20;;;2.80;;
13048;SDS011;6591;51.446;5.404;2023-07-31T07:34:56;3.72;;;2.65;;
13048;SDS011;6591;51.446;5.404;2023-07-31T07:37:23;4.97;;;3.10;;
13048;SDS011;6591;51.446;5.404;2023-07-31T07:39:50;4.25;;;2.70;;
13048;SDS011;6591;51.446;5.404;2023-07-31T07:42:17;2.97;;;2.60;;
13048;SDS011;6591;51.446;5.404;2023-07-31T07:44:44;3.88;;;2.92;;
13048;SDS011;6591;51.446;5.404;2023-07-31T07:47:12;5.32;;;3.28;;
13048;SDS011;6591;51.446;5.404;2023-07-31T07:49:39;5.07;;;3.35;;
13048;SDS011;6591;51.446;5.404;2023-07-31T07:52:06;4.38;;;3.17;;
13048;SDS011;6591;51.446;5.404;2023-07-31T07:54:33;4.63;;;3.25;;
13048;SDS011;6591;51.446;5.404;2023-07-31T07:57:00;4.25;;;3.42;;
13048;SDS011;6591;51.446;5.404;2023-07-31T07:59:27;5.38;;;3.50;;
13048;SDS011;6591;51.446;5.404;2023-07-31T08:01:55;4.28;;;3.10;;
13048;SDS011;6591;51.446;5.404;2023-07-31T08:04:23;5.13;;;3.47;;
13048;SDS011;6591;51.446;5.404;2023-07-31T08:06:50;4.85;;;3.60;;
13048;SDS011;6591;51.446;5.404;2023-07-31T08:09:17;4.55;;;3.53;;
13048;SDS011;6591;51.446;5.404;2023-07-31T08:11:45;5.47;;;3.65;;
13048;SDS011;6591;51.446;5.404;2023-07-31T08:14:12;5.22;;;3.92;;
13048;SDS011;6591;51.446;5.404;2023-07-31T08:16:40;3.88;;;3.33;;
13048;SDS011;6591;51.446;5.404;2023-07-31T08:19:07;4.13;;;3.42;;
13048;SDS011;6591;51.446;5.404;2023-07-31T08:21:35;5.05;;;3.50;;
13048;SDS011;6591;51.446;5.404;2023-07-31T08:24:02;3.60;;;3.05;;
13048;SDS011;6591;51.446;5.404;2023-07-31T08:26:29;4.05;;;3.30;;
13048;SDS011;6591;51.446;5.404;2023-07-31T08:28:56;5.00;;;3.10;;
13048;SDS011;6591;51.446;5.404;2023-07-31T08:31:24;5.72;;;3.55;;
13048;SDS011;6591;51.446;5.404;2023-07-31T08:33:51;3.92;;;3.28;;
13048;SDS011;6591;51.446;5.404;2023-07-31T08:36:18;4.85;;;3.35;;
13048;SDS011;6591;51.446;5.404;2023-07-31T08:38:45;4.60;;;3.30;;
13048;SDS011;6591;51.446;5.404;2023-07-31T08:41:13;3.97;;;3.30;;
13048;SDS011;6591;51.446;5.404;2023-07-31T08:43:40;5.13;;;3.15;;
13048;SDS011;6591;51.446;5.404;2023-07-31T08:46:08;5.00;;;3.53;;
13048;SDS011;6591;51.446;5.404;2023-07-31T08:48:36;5.35;;;3.85;;
13048;SDS011;6591;51.446;5.404;2023-07-31T08:51:06;5.53;;;3.45;;
13048;SDS011;6591;51.446;5.404;2023-07-31T08:53:34;3.88;;;3.45;;
13048;SDS011;6591;51.446;5.404;2023-07-31T08:56:01;4.68;;;3.53;;
13048;SDS011;6591;51.446;5.404;2023-07-31T08:58:30;4.43;;;3.50;;
13048;SDS011;6591;51.446;5.404;2023-07-31T09:01:01;5.63;;;3.40;;
13048;SDS011;6591;51.446;5.404;2023-07-31T09:03:33;5.15;;;4.00;;
13048;SDS011;6591;51.446;5.404;2023-07-31T09:06:02;3.83;;;3.45;;
13048;SDS011;6591;51.446;5.404;2023-07-31T09:08:32;5.32;;;3.72;;
13048;SDS011;6591;51.446;5.404;2023-07-31T09:11:00;5.60;;;3.47;;
13048;SDS011;6591;51.446;5.404;2023-07-31T09:13:30;4.75;;;3.55;;
13048;SDS011;6591;51.446;5.404;2023-07-31T09:15:58;5.00;;;3.60;;
13048;SDS011;6591;51.446;5.404;2023-07-31T09:18:25;5.30;;;3.72;;
13048;SDS011;6591;51.446;5.404;2023-07-31T09:23:40;5.32;;;3.60;;
13048;SDS011;6591;51.446;5.404;2023-07-31T09:26:34;6.00;;;3.95;;
13048;SDS011;6591;51.446;5.404;2023-07-31T09:29:07;6.75;;;3.63;;
13048;SDS011;6591;51.446;5.404;2023-07-31T09:31:46;5.53;;;3.42;;
13048;SDS011;6591;51.446;5.404;2023-07-31T09:34:14;5.00;;;3.50;;
13048;SDS011;6591;51.446;5.404;2023-07-31T09:36:46;5.05;;;3.17;;
13048;SDS011;6591;51.446;5.404;2023-07-31T09:39:16;8.13;;;4.32;;
13048;SDS011;6591;51.446;5.404;2023-07-31T09:41:55;5.22;;;3.72;;
13048;SDS011;6591;51.446;5.404;2023-07-31T09:44:41;5.75;;;3.70;;
13048;SDS011;6591;51.446;5.404;2023-07-31T09:47:22;6.50;;;3.28;;
13048;SDS011;6591;51.446;5.404;2023-07-31T09:49:51;4.43;;;3.22;;
13048;SDS011;6591;51.446;5.404;2023-07-31T09:52:19;4.60;;;3.15;;
13048;SDS011;6591;51.446;5.404;2023-07-31T09:54:46;5.65;;;3.30;;
13048;SDS011;6591;51.446;5.404;2023-07-31T09:57:13;5.63;;;3.33;;
13048;SDS011;6591;51.446;5.404;2023-07-31T09:59:44;4.78;;;3.05;;
13048;SDS011;6591;51.446;5.404;2023-07-31T10:02:15;3.70;;;2.95;;
13048;SDS011;6591;51.446;5.404;2023-07-31T10:04:49;3.95;;;2.88;;
13048;SDS011;6591;51.446;5.404;2023-07-31T10:07:18;4.60;;;3.20;;
13048;SDS011;6591;51.446;5.404;2023-07-31T10:09:49;3.92;;;2.88;;
13048;SDS011;6591;51.446;5.404;2023-07-31T10:12:20;4.30;;;3.03;;
13048;SDS011;6591;51.446;5.404;2023-07-31T10:14:55;4.25;;;3.05;;
13048;SDS011;6591;51.446;5.404;2023-07-31T10:17:22;3.83;;;3.13;;
13048;SDS011;6591;51.446;5.404;2023-07-31T10:19:51;3.65;;;2.80;;
13048;SDS011;6591;51.446;5.404;2023-07-31T10:22:19;3.85;;;3.00;;
13048;SDS011;6591;51.446;5.404;2023-07-31T10:24:48;3.47;;;2.55;;
13048;SDS011;6591;51.446;5.404;2023-07-31T10:27:17;4.75;;;2.70;;
13048;SDS011;6591;51.446;5.404;2023-07-31T10:29:44;4.00;;;2.97;;
13048;SDS011;6591;51.446;5.404;2023-07-31T10:32:15;3.97;;;2.80;;
13048;SDS011;6591;51.446;5.404;2023-07-31T10:34:45;4.13;;;2.85;;
13048;SDS011;6591;51.446;5.404;2023-07-31T10:37:28;2.80;;;2.50;;
13048;SDS011;6591;51.446;5.404;2023-07-31T10:40:04;3.95;;;2.70;;
13048;SDS011;6591;51.446;5.404;2023-07-31T10:42:47;3.63;;;2.65;;
13048;SDS011;6591;51.446;5.404;2023-07-31T10:48:14;3.70;;;2.50;;
13048;SDS011;6591;51.446;5.404;2023-07-31T10:50:50;3.63;;;2.58;;
13048;SDS011;6591;51.446;5.404;2023-07-31T10:53:25;3.30;;;2.90;;
13048;SDS011;6591;51.446;5.404;2023-07-31T10:56:00;4.60;;;2.88;;
13048;SDS011;6591;51.446;5.404;2023-07-31T10:58:30;4.07;;;2.63;;
13048;SDS011;6591;51.446;5.404;2023-07-31T11:00:59;4.43;;;2.80;;
13048;SDS011;6591;51.446;5.404;2023-07-31T11:03:49;4.38;;;3.00;;
13048;SDS011;6591;51.446;5.404;2023-07-31T11:06:20;3.28;;;2.97;;
13048;SDS011;6591;51.446;5.404;2023-07-31T11:08:48;4.53;;;3.00;;
13048;SDS011;6591;51.446;5.404;2023-07-31T11:11:18;3.17;;;2.83;;
13048;SDS011;6591;51.446;5.404;2023-07-31T11:13:51;4.70;;;3.10;;
13048;SDS011;6591;51.446;5.404;2023-07-31T11:16:22;4.05;;;2.90;;
13048;SDS011;6591;51.446;5.404;2023-07-31T11:18:51;5.85;;;3.20;;
13048;SDS011;6591;51.446;5.404;2023-07-31T11:21:22;4.13;;;2.78;;
13048;SDS011;6591;51.446;5.404;2023-07-31T11:23:52;4.82;;;3.13;;
13048;SDS011;6591;51.446;5.404;2023-07-31T11:26:24;3.00;;;2.72;;
13048;SDS011;6591;51.446;5.404;2023-07-31T11:28:51;3.65;;;2.80;;
13048;SDS011;6591;51.446;5.404;2023-07-31T11:31:19;2.72;;;2.45;;
13048;SDS011;6591;51.446;5.404;2023-07-31T11:33:46;4.28;;;2.92;;
13048;SDS011;6591;51.446;5.404;2023-07-31T11:36:14;3.83;;;2.97;;
13048;SDS011;6591;51.446;5.404;2023-07-31T11:38:43;2.88;;;2.55;;
13048;SDS011;6591;51.446;5.404;2023-07-31T11:41:13;3.83;;;2.70;;
13048;SDS011;6591;51.446;5.404;2023-07-31T11:43:48;3.97;;;2.85;;
13048;SDS011;6591;51.446;5.404;2023-07-31T11:46:15;3.72;;;2.60;;
13048;SDS011;6591;51.446;5.404;2023-07-31T11:48:42;3.15;;;2.30;;
13048;SDS011;6591;51.446;5.404;2023-07-31T11:51:10;3.60;;;2.75;;
13048;SDS011;6591;51.446;5.404;2023-07-31T11:53:50;3.60;;;2.90;;
13048;SDS011;6591;51.446;5.404;2023-07-31T11:56:22;3.70;;;2.30;;
13048;SDS011;6591;51.446;5.404;2023-07-31T11:58:52;2.78;;;2.35;;
13048;SDS011;6591;51.446;5.404;2023-07-31T12:01:24;2.75;;;2.50;;
13048;SDS011;6591;51.446;5.404;2023-07-31T12:03:56;2.78;;;2.30;;
13048;SDS011;6591;51.446;5.404;2023-07-31T12:06:34;3.03;;;2.45;;
13048;SDS011;6591;51.446;5.404;2023-07-31T12:09:05;3.55;;;2.90;;
13048;SDS011;6591;51.446;5.404;2023-07-31T12:11:42;4.10;;;2.55;;
13048;SDS011;6591;51.446;5.404;2023-07-31T12:14:20;3.35;;;2.60;;
13048;SDS011;6591;51.446;5.404;2023-07-31T12:16:56;3.78;;;2.72;;
13048;SDS011;6591;51.446;5.404;2023-07-31T12:19:26;5.63;;;2.72;;
13048;SDS011;6591;51.446;5.404;2023-07-31T12:21:58;4.57;;;2.80;;
13048;SDS011;6591;51.446;5.404;2023-07-31T12:24:26;3.97;;;2.85;;
13048;SDS011;6591;51.446;5.404;2023-07-31T12:26:54;5.00;;;2.50;;
13048;SDS011;6591;51.446;5.404;2023-07-31T12:29:21;4.90;;;3.13;;
13048;SDS011;6591;51.446;5.404;2023-07-31T12:31:48;3.22;;;2.70;;
13048;SDS011;6591;51.446;5.404;2023-07-31T12:34:19;3.95;;;2.63;;
13048;SDS011;6591;51.446;5.404;2023-07-31T12:36:47;4.03;;;3.25;;
13048;SDS011;6591;51.446;5.404;2023-07-31T12:39:15;5.13;;;3.13;;
13048;SDS011;6591;51.446;5.404;2023-07-31T12:41:42;4.35;;;3.42;;
13048;SDS011;6591;51.446;5.404;2023-07-31T12:44:10;4.20;;;3.03;;
13048;SDS011;6591;51.446;5.404;2023-07-31T12:46:37;4.22;;;3.30;;
13048;SDS011;6591;51.446;5.404;2023-07-31T12:49:05;5.18;;;3.28;;
13048;SDS011;6591;51.446;5.404;2023-07-31T12:51:32;3.88;;;3.30;;
13048;SDS011;6591;51.446;5.404;2023-07-31T12:53:59;4.53;;;3.50;;
13048;SDS011;6591;51.446;5.404;2023-07-31T12:56:26;4.85;;;3.50;;
13048;SDS011;6591;51.446;5.404;2023-07-31T12:58:53;5.53;;;3.80;;
13048;SDS011;6591;51.446;5.404;2023-07-31T13:01:20;5.57;;;3.60;;
13048;SDS011;6591;51.446;5.404;2023-07-31T13:03:47;3.97;;;3.35;;
13048;SDS011;6591;51.446;5.404;2023-07-31T13:06:14;6.93;;;3.65;;
13048;SDS011;6591;51.446;5.404;2023-07-31T13:08:41;6.60;;;3.78;;
13048;SDS011;6591;51.446;5.404;2023-07-31T13:11:08;4.07;;;3.65;;
13048;SDS011;6591;51.446;5.404;2023-07-31T13:13:35;5.95;;;3.47;;
13048;SDS011;6591;51.446;5.404;2023-07-31T13:16:02;5.28;;;3.65;;
13048;SDS011;6591;51.446;5.404;2023-07-31T13:18:30;5.47;;;3.75;;
13048;SDS011;6591;51.446;5.404;2023-07-31T13:20:57;5.38;;;3.47;;
13048;SDS011;6591;51.446;5.404;2023-07-31T13:23:24;6.88;;;3.53;;
13048;SDS011;6591;51.446;5.404;2023-07-31T13:25:51;4.10;;;3.28;;
13048;SDS011;6591;51.446;5.404;2023-07-31T13:28:18;4.60;;;3.40;;
13048;SDS011;6591;51.446;5.404;2023-07-31T13:30:45;5.60;;;3.58;;
13048;SDS011;6591;51.446;5.404;2023-07-31T13:33:12;5.63;;;3.72;;
13048;SDS011;6591;51.446;5.404;2023-07-31T13:35:55;4.15;;;3.58;;
13048;SDS011;6591;51.446;5.404;2023-07-31T13:38:22;5.53;;;3.70;;
13048;SDS011;6591;51.446;5.404;2023-07-31T13:40:49;5.88;;;4.18;;
13048;SDS011;6591;51.446;5.404;2023-07-31T13:43:16;6.50;;;3.55;;
13048;SDS011;6591;51.446;5.404;2023-07-31T13:45:43;6.68;;;3.47;;
13048;SDS011;6591;51.446;5.404;2023-07-31T13:48:10;5.60;;;3.60;;
13048;SDS011;6591;51.446;5.404;2023-07-31T13:50:37;5.13;;;3.80;;
13048;SDS011;6591;51.446;5.404;2023-07-31T13:53:04;5.70;;;3.78;;
13048;SDS011;6591;51.446;5.404;2023-07-31T13:55:31;5.28;;;4.05;;
13048;SDS011;6591;51.446;5.404;2023-07-31T13:57:58;6.07;;;4.10;;
13048;SDS011;6591;51.446;5.404;2023-07-31T14:00:25;6.05;;;4.13;;
13048;SDS011;6591;51.446;5.404;2023-07-31T14:02:52;6.00;;;4.10;;
13048;SDS011;6591;51.446;5.404;2023-07-31T14:05:19;6.20;;;3.63;;
13048;SDS011;6591;51.446;5.404;2023-07-31T14:07:47;7.15;;;4.05;;
13048;SDS011;6591;51.446;5.404;2023-07-31T14:10:14;6.65;;;3.80;;
13048;SDS011;6591;51.446;5.404;2023-07-31T14:12:41;5.93;;;3.80;;
13048;SDS011;6591;51.446;5.404;2023-07-31T14:15:09;6.10;;;4.22;;
13048;SDS011;6591;51.446;5.404;2023-07-31T14:17:37;7.47;;;3.80;;
13048;SDS011;6591;51.446;5.404;2023-07-31T14:20:05;8.77;;;4.25;;
13048;SDS011;6591;51.446;5.404;2023-07-31T14:22:33;6.68;;;3.80;;
13048;SDS011;6591;51.446;5.404;2023-07-31T14:25:01;6.15;;;4.20;;
13048;SDS011;6591;51.446;5.404;2023-07-31T14:27:28;5.55;;;3.83;;
13048;SDS011;6591;51.446;5.404;2023-07-31T14:29:55;5.95;;;3.70;;
13048;SDS011;6591;51.446;5.404;2023-07-31T14:32:23;5.93;;;3.97;;
13048;SDS011;6591;51.446;5.404;2023-07-31T14:34:52;5.88;;;4.07;;
13048;SDS011;6591;51.446;5.404;2023-07-31T14:37:20;6.57;;;3.97;;
13048;SDS011;6591;51.446;5.404;2023-07-31T14:39:48;6.82;;;4.20;;
13048;SDS011;6591;51.446;5.404;2023-07-31T14:42:16;6.80;;;3.90;;
13048;SDS011;6591;51.446;5.404;2023-07-31T14:44:44;5.78;;;3.92;;
13048;SDS011;6591;51.446;5.404;2023-07-31T14:47:13;6.07;;;3.58;;
13048;SDS011;6591;51.446;5.404;2023-07-31T14:49:40;4.70;;;3.20;;
13048;SDS011;6591;51.446;5.404;2023-07-31T14:52:07;4.95;;;3.30;;
13048;SDS011;6591;51.446;5.404;2023-07-31T14:54:34;5.50;;;3.35;;
13048;SDS011;6591;51.446;5.404;2023-07-31T14:57:02;3.15;;;2.70;;
13048;SDS011;6591;51.446;5.404;2023-07-31T14:59:30;6.18;;;2.63;;
13048;SDS011;6591;51.446;5.404;2023-07-31T15:01:57;3.40;;;2.65;;
13048;SDS011;6591;51.446;5.404;2023-07-31T15:04:24;5.00;;;2.80;;
13048;SDS011;6591;51.446;5.404;2023-07-31T15:06:52;2.80;;;2.22;;
13048;SDS011;6591;51.446;5.404;2023-07-31T15:09:19;3.38;;;2.63;;
13048;SDS011;6591;51.446;5.404;2023-07-31T15:11:46;3.95;;;2.65;;
13048;SDS011;6591;51.446;5.404;2023-07-31T15:14:14;5.05;;;2.97;;
13048;SDS011;6591;51.446;5.404;2023-07-31T15:16:43;4.63;;;2.63;;
13048;SDS011;6591;51.446;5.404;2023-07-31T15:19:10;3.47;;;2.35;;
13048;SDS011;6591;51.446;5.404;2023-07-31T15:21:37;3.80;;;2.80;;
13048;SDS011;6591;51.446;5.404;2023-07-31T15:24:05;3.97;;;2.28;;